Time;durP1;ratioP1;P1;durP2;ratioP2;P2;SDS_P1;SDS_P2;PMS_P1;PMS_P2;Temp;Humidity;BMP_temperature;BMP_pressure;BME280_temperature;BME280_humidity;BME280_pressure;Samples;Min_cycle;Max_cycle;Signal;HPM_P1;HPM_P2
2023/01/03 00:00:42;;;;;;;19.65;2.60;;;4.90;99.90;;;;;;4957447;29;20031;-68
2023/01/03 00:03:08;;;;;;;19.27;2.42;;;4.90;99.90;;;;;;4957275;28;20034;-69
2023/01/03 00:05:36;;;;;;;13.32;1.83;;;4.90;99.90;;;;;;4958306;28;20356;-69
2023/01/03 00:08:02;;;;;;;15.52;2.58;;;4.80;99.90;;;;;;4976629;28;20026;-68
2023/01/03 00:10:28;;;;;;;19.48;4.20;;;4.70;99.90;;;;;;4976888;28;20039;-68
2023/01/03 00:12:56;;;;;;;17.63;2.88;;;4.60;99.90;;;;;;4976413;28;20053;-69
2023/01/03 00:15:21;;;;;;;13.02;2.78;;;4.50;99.90;;;;;;4976762;28;20424;-69
2023/01/03 00:17:47;;;;;;;21.98;2.28;;;4.40;99.90;;;;;;4971905;28;20054;-69
2023/01/03 00:20:12;;;;;;;9.73;1.48;;;4.40;99.90;;;;;;4972822;28;20094;-69
2023/01/03 00:22:38;;;;;;;19.60;1.98;;;4.30;99.90;;;;;;4957264;29;20063;-69
2023/01/03 00:25:04;;;;;;;16.80;2.17;;;4.20;99.90;;;;;;4956986;28;20063;-69
2023/01/03 00:27:29;;;;;;;13.05;1.80;;;4.20;99.90;;;;;;4956973;28;20078;-69
2023/01/03 00:29:55;;;;;;;24.13;2.30;;;4.10;99.90;;;;;;4956976;29;20051;-68
2023/01/03 00:32:21;;;;;;;14.13;2.05;;;4.10;99.90;;;;;;4956681;28;20404;-69
2023/01/03 00:34:47;;;;;;;17.05;2.05;;;4.10;99.90;;;;;;4976037;28;20035;-69
2023/01/03 00:37:13;;;;;;;16.10;2.10;;;4.10;99.90;;;;;;4976414;28;20026;-68
2023/01/03 00:39:39;;;;;;;16.48;1.90;;;4.10;99.90;;;;;;4973788;28;20026;-69
2023/01/03 00:42:05;;;;;;;33.20;3.17;;;4.10;99.90;;;;;;4976032;28;20029;-68
2023/01/03 00:44:31;;;;;;;25.75;2.45;;;4.10;99.90;;;;;;4966266;28;20034;-69
2023/01/03 00:46:57;;;;;;;11.70;1.63;;;4.20;99.90;;;;;;4962537;28;20024;-69
2023/01/03 00:49:23;;;;;;;19.55;3.33;;;4.40;99.90;;;;;;4972132;28;20085;-69
2023/01/03 00:51:49;;;;;;;24.13;2.50;;;4.40;99.90;;;;;;4975649;28;20387;-69
2023/01/03 00:54:15;;;;;;;26.05;2.50;;;4.40;99.90;;;;;;4975345;28;20031;-69
2023/01/03 00:56:43;;;;;;;24.58;2.70;;;4.30;99.90;;;;;;4975765;28;20019;-69
2023/01/03 00:59:10;;;;;;;19.60;2.22;;;4.30;99.90;;;;;;4975721;28;20019;-68
2023/01/03 01:01:45;;;;;;;14.45;3.20;;;4.20;99.90;;;;;;4975557;28;20023;-69
2023/01/03 01:04:22;;;;;;;23.42;2.90;;;4.10;99.90;;;;;;4975819;28;20360;-69
2023/01/03 01:06:50;;;;;;;28.33;2.17;;;4.10;99.90;;;;;;4974135;28;20474;-69
2023/01/03 01:09:19;;;;;;;19.25;2.45;;;4.10;99.90;;;;;;4975791;28;20027;-68
2023/01/03 01:11:45;;;;;;;28.05;2.47;;;4.20;99.90;;;;;;4975412;28;20375;-70
2023/01/03 01:14:20;;;;;;;24.23;3.28;;;4.20;99.90;;;;;;4975256;28;20034;-69
2023/01/03 01:16:58;;;;;;;29.08;2.88;;;4.20;99.90;;;;;;4975692;28;20027;-69
2023/01/03 01:19:26;;;;;;;31.08;3.67;;;4.20;99.90;;;;;;4970177;28;20039;-69
2023/01/03 01:21:52;;;;;;;21.92;3.30;;;4.20;99.90;;;;;;4955925;29;20503;-69
2023/01/03 01:24:18;;;;;;;35.30;3.35;;;4.10;99.90;;;;;;4955632;28;20039;-69
2023/01/03 01:26:44;;;;;;;24.10;3.97;;;4.10;99.90;;;;;;4956432;29;20031;-69
2023/01/03 01:29:12;;;;;;;19.17;2.72;;;4.00;99.90;;;;;;4955784;28;20041;-68
2023/01/03 01:31:38;;;;;;;23.15;2.35;;;4.10;99.90;;;;;;4971585;28;20485;-69
2023/01/03 01:34:04;;;;;;;19.33;2.33;;;4.10;99.90;;;;;;4975207;28;20034;-70
2023/01/03 01:36:32;;;;;;;24.17;3.08;;;4.10;99.90;;;;;;4973605;28;20033;-70
2023/01/03 01:39:05;;;;;;;28.38;2.47;;;4.00;99.90;;;;;;4975265;28;20054;-69
2023/01/03 01:44:41;;;;;;;32.13;2.78;;;3.90;99.90;;;;;;4974929;28;20093;-69
2023/01/03 01:47:38;;;;;;;26.33;2.42;;;4.00;99.90;;;;;;4974918;28;20038;-69
2023/01/03 01:50:15;;;;;;;25.70;3.10;;;4.10;99.90;;;;;;4974803;28;20045;-69
2023/01/03 01:52:49;;;;;;;25.20;3.03;;;4.10;99.90;;;;;;4974788;28;20077;-70
2023/01/03 01:55:23;;;;;;;12.20;2.05;;;4.20;99.90;;;;;;4974837;28;20116;-69
2023/01/03 01:57:49;;;;;;;26.10;2.83;;;4.20;99.90;;;;;;4975120;28;20394;-69
2023/01/03 02:00:15;;;;;;;18.80;2.85;;;4.30;99.90;;;;;;4974643;28;20130;-69
2023/01/03 02:02:42;;;;;;;33.78;2.92;;;4.40;99.90;;;;;;4974320;28;20031;-70
2023/01/03 02:05:08;;;;;;;12.65;2.45;;;4.40;99.90;;;;;;4974572;28;20394;-69
2023/01/03 02:07:34;;;;;;;22.25;2.67;;;4.50;99.90;;;;;;4974823;28;20426;-69
2023/01/03 02:10:00;;;;;;;18.92;2.78;;;4.60;99.90;;;;;;4974547;28;20066;-69
2023/01/03 02:13:06;;;;;;;23.48;2.35;;;4.60;99.90;;;;;;4974795;28;20110;-69
2023/01/03 02:15:56;;;;;;;14.43;1.65;;;4.70;99.90;;;;;;4956785;28;20042;-69
2023/01/03 02:18:58;;;;;;;24.27;2.40;;;4.70;99.90;;;;;;4955449;29;20031;-70
2023/01/03 02:21:48;;;;;;;18.45;2.83;;;4.60;99.90;;;;;;4955435;29;20027;-69
2023/01/03 02:24:37;;;;;;;25.27;2.40;;;4.60;99.90;;;;;;4957516;28;20032;-70
2023/01/03 02:27:40;;;;;;;23.60;2.70;;;4.60;99.90;;;;;;4974419;28;20114;-69
2023/01/03 02:30:36;;;;;;;16.67;2.15;;;4.80;99.90;;;;;;4973525;28;20030;-70
2023/01/03 02:33:09;;;;;;;24.52;3.00;;;4.80;99.90;;;;;;4974269;28;20038;-69
2023/01/03 02:36:10;;;;;;;30.02;2.60;;;4.80;99.90;;;;;;4970836;28;20090;-70
2023/01/03 02:39:00;;;;;;;27.90;3.42;;;4.80;99.90;;;;;;4960009;28;20487;-70
2023/01/03 02:45:15;;;;;;;12.77;2.08;;;4.90;99.90;;;;;;4977512;28;20070;-69
2023/01/03 02:47:49;;;;;;;31.20;2.50;;;4.80;99.90;;;;;;4977201;28;20030;-69
2023/01/03 02:50:15;;;;;;;28.25;3.08;;;4.70;99.90;;;;;;4978427;28;20023;-69
2023/01/03 02:52:42;;;;;;;28.15;2.22;;;4.70;99.90;;;;;;4977960;28;20106;-69
2023/01/03 02:55:20;;;;;;;30.85;2.67;;;4.80;99.90;;;;;;4978342;28;20541;-69
2023/01/03 02:57:52;;;;;;;30.17;2.95;;;4.80;99.90;;;;;;4978264;28;20150;-69
2023/01/03 03:00:22;;;;;;;27.52;2.22;;;4.90;99.90;;;;;;4978242;28;20089;-69
2023/01/03 03:02:52;;;;;;;31.63;2.55;;;4.90;99.90;;;;;;4977902;28;20106;-69
2023/01/03 03:05:25;;;;;;;34.05;3.42;;;5.00;99.90;;;;;;4977749;28;20045;-69
2023/01/03 03:07:51;;;;;;;39.70;4.25;;;5.00;99.90;;;;;;4978357;28;20018;-69
2023/01/03 03:13:24;;;;;;;18.33;3.17;;;5.10;99.90;;;;;;4977963;28;20081;-69
2023/01/03 03:15:55;;;;;;;24.55;3.05;;;5.20;99.90;;;;;;4977332;28;20037;-69
2023/01/03 03:18:52;;;;;;;17.70;2.58;;;5.20;99.90;;;;;;4977806;28;20491;-69
2023/01/03 03:28:33;;;;;;;18.33;2.05;;;5.20;99.90;;;;;;4977713;28;20108;-69
2023/01/03 03:29:55;;;;;;;21.90;2.60;;;5.20;99.90;;;;;;4977258;28;20155;-69
2023/01/03 03:32:25;;;;;;;12.05;2.53;;;5.20;99.90;;;;;;4977362;28;20034;-69
2023/01/03 03:34:53;;;;;;;22.45;2.67;;;5.10;99.90;;;;;;4977164;28;20031;-69
2023/01/03 03:37:23;;;;;;;24.05;2.22;;;5.10;99.90;;;;;;4977262;28;20025;-70
2023/01/03 03:45:36;;;;;;;9.18;2.00;;;5.10;99.90;;;;;;4977350;28;20073;-70
2023/01/03 03:48:16;;;;;;;21.08;2.63;;;5.00;99.90;;;;;;4977350;28;20383;-69
2023/01/03 03:51:00;;;;;;;20.48;1.85;;;5.10;99.90;;;;;;4977285;28;20090;-69
2023/01/03 03:53:30;;;;;;;15.52;1.85;;;5.00;99.90;;;;;;4976971;28;20066;-69
2023/01/03 03:56:02;;;;;;;24.65;2.35;;;5.00;99.90;;;;;;4976861;28;20034;-69
2023/01/03 03:58:38;;;;;;;24.80;2.75;;;4.90;99.90;;;;;;4977188;28;20078;-69
2023/01/03 04:01:05;;;;;;;32.88;2.65;;;4.80;99.90;;;;;;4977097;28;20030;-69
2023/01/03 04:03:32;;;;;;;19.85;3.47;;;4.80;99.90;;;;;;4976731;28;20110;-70
2023/01/03 04:06:03;;;;;;;25.10;2.65;;;4.60;99.90;;;;;;4976704;28;20027;-70
2023/01/03 04:08:28;;;;;;;24.40;2.80;;;4.60;99.90;;;;;;4977256;28;20066;-69
2023/01/03 04:11:04;;;;;;;27.00;2.63;;;4.50;99.90;;;;;;4976638;28;20062;-70
2023/01/03 04:13:31;;;;;;;19.80;3.58;;;4.40;99.90;;;;;;4972749;28;20038;-70
2023/01/03 04:15:56;;;;;;;23.50;2.40;;;4.40;99.90;;;;;;4976523;28;20125;-70
2023/01/03 04:18:22;;;;;;;17.63;2.22;;;4.40;99.90;;;;;;4957939;28;20142;-70
2023/01/03 04:20:47;;;;;;;23.02;2.08;;;4.40;99.90;;;;;;4957212;29;20027;-69
2023/01/03 04:23:13;;;;;;;23.25;2.50;;;4.30;99.90;;;;;;4957108;29;20034;-69
2023/01/03 04:25:38;;;;;;;16.92;2.60;;;4.30;99.90;;;;;;4956911;28;20035;-69
2023/01/03 04:28:04;;;;;;;23.58;2.78;;;4.20;99.90;;;;;;4957048;29;20435;-69
2023/01/03 04:30:29;;;;;;;23.25;2.47;;;4.20;99.90;;;;;;4955743;29;20039;-69
2023/01/03 04:32:56;;;;;;;11.57;2.08;;;4.20;99.90;;;;;;4956758;28;20063;-70
2023/01/03 04:35:21;;;;;;;12.32;1.73;;;4.10;99.90;;;;;;4957394;28;20071;-70
2023/01/03 04:37:47;;;;;;;24.92;2.00;;;4.00;99.90;;;;;;4957104;29;20023;-69
2023/01/03 04:40:13;;;;;;;16.63;1.80;;;3.90;99.90;;;;;;4956798;29;20117;-69
2023/01/03 04:45:22;;;;;;;13.32;1.60;;;3.70;99.90;;;;;;4956701;28;20410;-70
2023/01/03 04:47:48;;;;;;;10.82;3.03;;;3.70;99.90;;;;;;4956869;29;20099;-69
2023/01/03 04:50:13;;;;;;;29.88;7.25;;;3.60;99.90;;;;;;4956579;29;20110;-69
2023/01/03 04:52:39;;;;;;;28.52;7.43;;;3.60;99.90;;;;;;4957009;29;20027;-69
2023/01/03 04:55:05;;;;;;;20.35;5.78;;;3.50;99.90;;;;;;4962204;28;20015;-69
2023/01/03 04:57:30;;;;;;;19.83;2.90;;;3.50;99.90;;;;;;4971709;28;20023;-69
2023/01/03 04:59:56;;;;;;;16.00;3.08;;;3.50;99.90;;;;;;4970711;28;20078;-69
2023/01/03 05:02:21;;;;;;;17.02;3.00;;;3.50;99.90;;;;;;4975587;28;20027;-69
2023/01/03 05:04:47;;;;;;;23.95;2.80;;;3.50;99.90;;;;;;4974678;28;20093;-69
2023/01/03 05:07:12;;;;;;;13.95;1.75;;;3.50;99.90;;;;;;4975710;28;20101;-69
2023/01/03 05:09:38;;;;;;;15.27;3.22;;;3.40;99.90;;;;;;4975551;28;20506;-69
2023/01/03 05:12:04;;;;;;;25.02;2.38;;;3.40;99.90;;;;;;4975795;28;20033;-69
2023/01/03 05:14:29;;;;;;;11.70;2.10;;;3.40;99.90;;;;;;4975413;28;20093;-69
2023/01/03 05:16:55;;;;;;;6.85;1.25;;;3.30;99.90;;;;;;4975449;28;20027;-68
2023/01/03 05:19:20;;;;;;;13.07;1.65;;;3.40;99.90;;;;;;4975154;28;20483;-69
2023/01/03 05:27:14;;;;;;;18.33;1.90;;;3.40;99.90;;;;;;4975280;28;20026;-69
2023/01/03 05:29:40;;;;;;;17.52;2.03;;;3.40;99.90;;;;;;4975150;28;20030;-69
2023/01/03 05:32:05;;;;;;;15.55;2.30;;;3.40;99.90;;;;;;4975301;28;20027;-70
2023/01/03 05:34:31;;;;;;;7.43;1.05;;;3.40;99.90;;;;;;4975108;28;20034;-69
2023/01/03 05:36:56;;;;;;;7.47;1.20;;;3.40;99.90;;;;;;4975303;28;20019;-69
2023/01/03 05:39:22;;;;;;;21.85;2.03;;;3.40;99.90;;;;;;4974981;28;20027;-69
2023/01/03 05:41:59;;;;;;;9.48;1.13;;;3.30;99.90;;;;;;4974979;28;20483;-70
2023/01/03 05:44:26;;;;;;;10.43;1.55;;;3.40;99.90;;;;;;4974870;28;20034;-70
2023/01/03 05:46:52;;;;;;;13.68;1.77;;;3.30;99.90;;;;;;4974931;28;20027;-69
2023/01/03 05:49:18;;;;;;;12.45;1.83;;;3.20;99.90;;;;;;4973373;28;20026;-69
2023/01/03 05:51:43;;;;;;;17.33;2.78;;;3.20;99.90;;;;;;4975031;28;20517;-70
2023/01/03 05:54:13;;;;;;;9.38;1.67;;;3.10;99.90;;;;;;4974635;28;20027;-70
2023/01/03 05:56:38;;;;;;;13.50;1.30;;;3.00;99.90;;;;;;4974741;28;20015;-69
2023/01/03 05:59:06;;;;;;;13.90;1.30;;;2.80;99.90;;;;;;4974577;28;20101;-69
2023/01/03 06:01:32;;;;;;;10.48;1.42;;;2.70;99.90;;;;;;4974684;28;20015;-69
2023/01/03 06:03:57;;;;;;;14.13;2.20;;;2.70;99.90;;;;;;4974847;28;20022;-70
2023/01/03 06:06:23;;;;;;;14.68;1.48;;;2.60;99.90;;;;;;4974617;28;20031;-69
2023/01/03 06:08:48;;;;;;;22.83;3.10;;;2.60;99.90;;;;;;4974647;28;20030;-69
2023/01/03 06:11:15;;;;;;;14.15;2.47;;;2.70;99.90;;;;;;4974319;28;20477;-70
2023/01/03 06:13:41;;;;;;;24.15;1.40;;;2.70;99.90;;;;;;4974444;28;20073;-69
2023/01/03 06:18:56;;;;;;;11.07;1.90;;;2.60;99.90;;;;;;4974793;28;20391;-69
2023/01/03 06:21:21;;;;;;;12.40;1.67;;;2.50;99.90;;;;;;4974467;28;20027;-69
2023/01/03 06:23:47;;;;;;;11.18;1.70;;;2.40;99.90;;;;;;4974375;28;20038;-70
2023/01/03 06:26:14;;;;;;;8.80;1.38;;;2.20;99.90;;;;;;4974205;28;20039;-69
2023/01/03 06:28:40;;;;;;;17.40;2.47;;;2.10;99.90;;;;;;4974671;28;20113;-69
2023/01/03 06:31:06;;;;;;;24.00;2.30;;;2.00;99.90;;;;;;4974251;28;20104;-69
2023/01/03 06:33:31;;;;;;;6.20;1.73;;;2.00;99.90;;;;;;4974291;28;20044;-69
2023/01/03 06:36:01;;;;;;;11.27;1.77;;;2.00;99.90;;;;;;4974778;28;20093;-69
2023/01/03 06:38:27;;;;;;;11.55;1.83;;;1.90;99.90;;;;;;4974323;28;20023;-69
2023/01/03 06:40:53;;;;;;;14.60;2.08;;;1.90;99.90;;;;;;4974315;28;20050;-69
2023/01/03 06:43:18;;;;;;;15.18;1.80;;;1.90;99.90;;;;;;4974255;28;20065;-69
2023/01/03 06:53:59;;;;;;;19.02;2.05;;;1.80;99.90;;;;;;4974107;28;20044;-70
2023/01/03 06:56:24;;;;;;;10.35;2.17;;;1.90;99.90;;;;;;4974129;28;20058;-69
2023/01/03 06:58:50;;;;;;;17.20;2.40;;;1.90;99.90;;;;;;4974341;28;20031;-69
2023/01/03 07:01:17;;;;;;;24.67;2.40;;;1.90;99.90;;;;;;4974117;28;20089;-69
2023/01/03 07:03:43;;;;;;;12.32;2.13;;;2.00;99.90;;;;;;4972576;28;20122;-70
2023/01/03 07:06:08;;;;;;;34.78;2.35;;;2.10;99.90;;;;;;4973962;28;20102;-69
2023/01/03 07:08:34;;;;;;;16.45;2.33;;;2.10;99.90;;;;;;4974120;28;20376;-69
2023/01/03 07:11:00;;;;;;;18.92;2.72;;;2.20;99.90;;;;;;4972697;28;20023;-69
2023/01/03 07:16:17;;;;;;;31.13;2.72;;;2.20;99.90;;;;;;4974173;28;20035;-70
2023/01/03 07:18:43;;;;;;;11.50;2.05;;;2.30;99.90;;;;;;4974234;28;20509;-68
2023/01/03 07:21:09;;;;;;;16.63;2.17;;;2.30;99.90;;;;;;4973893;28;20034;-69
2023/01/03 07:23:35;;;;;;;17.95;2.85;;;2.20;99.90;;;;;;4973636;28;20398;-70
2023/01/03 07:26:00;;;;;;;28.67;2.78;;;2.20;99.90;;;;;;4973545;28;20588;-69
2023/01/03 07:28:26;;;;;;;14.50;2.80;;;2.20;99.90;;;;;;4976258;28;20037;-68
2023/01/03 07:30:51;;;;;;;21.00;2.33;;;2.20;99.90;;;;;;4977519;28;20023;-69
2023/01/03 07:33:17;;;;;;;19.92;2.40;;;2.10;99.90;;;;;;4977202;28;20394;-69
2023/01/03 07:35:44;;;;;;;22.23;2.17;;;2.10;99.90;;;;;;4977262;28;20085;-69
2023/01/03 07:38:12;;;;;;;9.23;2.22;;;2.10;99.90;;;;;;4963821;28;20055;-69
2023/01/03 07:40:38;;;;;;;18.13;2.60;;;2.00;99.90;;;;;;4957873;29;20074;-68
2023/01/03 07:45:48;;;;;;;24.42;2.17;;;1.90;99.90;;;;;;4977161;28;20118;-69
2023/01/03 07:48:14;;;;;;;13.88;1.50;;;1.90;99.90;;;;;;4977318;28;20106;-68
2023/01/03 07:50:40;;;;;;;18.60;1.75;;;1.90;99.90;;;;;;4974378;28;20022;-69
2023/01/03 07:53:07;;;;;;;9.20;1.73;;;1.80;99.90;;;;;;4976917;28;20039;-69
2023/01/03 07:55:34;;;;;;;25.92;2.10;;;1.80;99.90;;;;;;4961845;28;20028;-69
2023/01/03 07:58:00;;;;;;;22.33;2.08;;;1.90;99.90;;;;;;4957548;28;20455;-68
2023/01/03 08:00:26;;;;;;;10.70;1.52;;;1.90;99.90;;;;;;4957634;29;20020;-69
2023/01/03 08:02:53;;;;;;;6.72;1.38;;;1.80;99.90;;;;;;4971580;28;20065;-69
2023/01/03 08:05:20;;;;;;;7.57;1.60;;;1.90;99.90;;;;;;4976868;28;20089;-69
2023/01/03 08:07:50;;;;;;;24.17;3.00;;;1.90;99.90;;;;;;4977190;28;20015;-70
2023/01/03 08:13:19;;;;;;;12.50;2.17;;;1.90;99.90;;;;;;4970495;28;20038;-69
2023/01/03 08:15:48;;;;;;;22.08;1.90;;;2.00;99.90;;;;;;4957359;28;20475;-70
2023/01/03 08:18:16;;;;;;;14.27;2.25;;;1.90;99.90;;;;;;4957985;28;20027;-70
2023/01/03 08:20:42;;;;;;;9.10;1.63;;;1.90;99.90;;;;;;4976544;28;20027;-69
2023/01/03 08:23:08;;;;;;;17.88;2.28;;;1.80;99.90;;;;;;4976469;28;20455;-70
2023/01/03 08:25:34;;;;;;;17.52;2.25;;;1.80;99.90;;;;;;4976096;28;20038;-70
2023/01/03 08:28:00;;;;;;;23.85;2.10;;;1.70;99.90;;;;;;4976630;28;20096;-70
2023/01/03 08:30:27;;;;;;;27.67;2.20;;;1.80;99.90;;;;;;4975144;28;20425;-70
2023/01/03 08:32:55;;;;;;;12.57;2.63;;;1.80;99.90;;;;;;4976395;28;20037;-70
2023/01/03 08:35:22;;;;;;;32.15;2.30;;;1.80;99.90;;;;;;4975694;28;20019;-70
2023/01/03 08:37:49;;;;;;;17.48;2.17;;;2.00;99.90;;;;;;4975922;28;20394;-70
2023/01/03 08:40:16;;;;;;;12.13;1.98;;;2.10;99.90;;;;;;4975378;28;20027;-69
2023/01/03 08:42:44;;;;;;;21.67;2.13;;;2.20;99.90;;;;;;4976315;28;20390;-70
2023/01/03 08:45:12;;;;;;;28.73;2.03;;;2.40;99.90;;;;;;4975910;28;20034;-70
2023/01/03 08:47:39;;;;;;;24.95;2.55;;;2.50;99.90;;;;;;4975763;28;20042;-70
2023/01/03 08:50:05;;;;;;;18.65;1.83;;;2.70;99.90;;;;;;4975937;28;20031;-69
2023/01/03 08:52:30;;;;;;;18.92;1.90;;;2.80;99.90;;;;;;4972447;28;20035;-70
2023/01/03 08:54:56;;;;;;;25.50;3.13;;;2.90;99.90;;;;;;4956553;28;20035;-70
2023/01/03 08:57:22;;;;;;;33.15;2.72;;;3.00;99.90;;;;;;4957205;28;20026;-70
2023/01/03 08:59:47;;;;;;;25.15;2.45;;;3.10;99.90;;;;;;4958310;28;20055;-70
2023/01/03 09:02:13;;;;;;;10.35;1.65;;;3.10;99.90;;;;;;4956390;29;20023;-70
2023/01/03 09:04:38;;;;;;;21.95;2.90;;;3.20;99.90;;;;;;4971102;28;20395;-70
2023/01/03 09:07:04;;;;;;;26.80;2.33;;;3.30;99.90;;;;;;4975610;28;20482;-69
2023/01/03 09:09:30;;;;;;;16.33;2.20;;;3.40;99.90;;;;;;4975845;28;20030;-69
2023/01/03 09:11:56;;;;;;;24.08;2.28;;;3.40;99.90;;;;;;4975564;28;20034;-70
2023/01/03 09:14:21;;;;;;;23.08;2.65;;;3.50;99.90;;;;;;4971073;28;20031;-70
2023/01/03 09:16:47;;;;;;;20.08;2.55;;;3.60;99.90;;;;;;4975045;28;20030;-70
2023/01/03 09:19:12;;;;;;;18.92;2.65;;;3.80;99.90;;;;;;4966143;28;20483;-70
2023/01/03 09:21:38;;;;;;;13.57;2.42;;;3.90;99.90;;;;;;4964775;28;20131;-70
2023/01/03 09:24:04;;;;;;;12.27;2.45;;;3.90;99.90;;;;;;4975307;28;20031;-70
2023/01/03 09:26:29;;;;;;;18.02;1.88;;;4.00;99.90;;;;;;4975557;28;20039;-70
2023/01/03 09:28:55;;;;;;;5.63;1.50;;;4.00;99.90;;;;;;4975220;28;20498;-70
2023/01/03 09:31:21;;;;;;;18.48;2.45;;;3.90;99.90;;;;;;4975150;28;20026;-70
2023/01/03 09:33:46;;;;;;;15.40;2.15;;;3.80;99.90;;;;;;4975043;28;20031;-69
2023/01/03 09:36:12;;;;;;;24.02;2.65;;;3.70;99.90;;;;;;4974673;28;20398;-70
2023/01/03 09:38:37;;;;;;;24.17;2.65;;;3.80;99.90;;;;;;4975112;28;20027;-70
2023/01/03 09:41:06;;;;;;;15.05;2.03;;;3.90;99.90;;;;;;4974970;28;20030;-70
2023/01/03 09:43:39;;;;;;;38.45;12.07;;;3.90;99.90;;;;;;4974988;28;20027;-70
2023/01/03 09:46:13;;;;;;;16.23;4.00;;;3.90;99.90;;;;;;4974941;28;20034;-70
2023/01/03 09:48:40;;;;;;;46.35;10.95;;;3.90;99.90;;;;;;4974960;28;20481;-70
2023/01/03 10:03:42;;;;;;;21.30;2.53;;;4.00;99.90;;;;;;4974444;28;20047;-70
2023/01/03 10:06:07;;;;;;;64.35;17.70;;;4.80;99.90;;;;;;4974575;28;20121;-70
2023/01/03 10:08:58;;;;;;;57.13;17.08;;;4.90;99.90;;;;;;4958421;28;20043;-70
2023/01/03 10:11:47;;;;;;;21.10;5.30;;;5.00;99.90;;;;;;4974935;28;20077;-69
2023/01/03 10:14:23;;;;;;;51.85;14.70;;;5.10;99.90;;;;;;4971606;28;20041;-70
2023/01/03 10:17:07;;;;;;;22.30;3.88;;;5.20;99.90;;;;;;4974926;28;20028;-70
2023/01/03 10:19:52;;;;;;;20.83;4.15;;;5.20;99.90;;;;;;4970332;28;20376;-69
2023/01/03 10:22:21;;;;;;;15.75;2.25;;;5.30;99.90;;;;;;4974805;28;20027;-69
2023/01/03 10:24:54;;;;;;;25.67;7.25;;;5.40;99.90;;;;;;4970816;28;20509;-69
2023/01/03 10:27:23;;;;;;;27.42;6.05;;;5.40;99.90;;;;;;4974499;28;20035;-70
2023/01/03 10:29:54;;;;;;;27.40;8.38;;;5.50;99.90;;;;;;4974389;28;20019;-70
2023/01/03 10:32:31;;;;;;;6.43;1.60;;;5.50;99.90;;;;;;4965594;28;20476;-70
2023/01/03 10:35:23;;;;;;;14.95;1.52;;;5.60;99.90;;;;;;4954977;28;20035;-70
2023/01/03 10:37:53;;;;;;;10.48;1.77;;;5.70;99.90;;;;;;4965452;28;20027;-70
2023/01/03 10:40:19;;;;;;;11.60;1.80;;;5.70;99.90;;;;;;4974284;28;20023;-70
2023/01/03 10:42:45;;;;;;;12.60;1.50;;;5.80;99.90;;;;;;4974236;28;20467;-70
2023/01/03 10:45:19;;;;;;;10.98;1.73;;;5.90;99.90;;;;;;4974496;28;20086;-69
2023/01/03 10:47:58;;;;;;;13.63;1.73;;;6.10;99.90;;;;;;4973361;28;20030;-70
2023/01/03 10:50:24;;;;;;;9.93;2.00;;;6.30;99.90;;;;;;4955211;28;20114;-71
2023/01/03 10:53:10;;;;;;;10.35;1.20;;;6.40;99.90;;;;;;4954846;29;20078;-70
2023/01/03 10:55:46;;;;;;;13.65;2.30;;;6.60;99.90;;;;;;4972399;28;20430;-70
2023/01/03 10:58:24;;;;;;;18.30;1.83;;;6.50;99.90;;;;;;4972923;28;20022;-70
2023/01/03 11:00:51;;;;;;;17.73;1.80;;;6.40;99.90;;;;;;4974093;28;20494;-69
2023/01/03 11:03:18;;;;;;;6.68;1.38;;;6.30;99.90;;;;;;4976028;28;20030;-71
2023/01/03 11:05:47;;;;;;;6.53;1.10;;;6.30;99.90;;;;;;4976367;28;20073;-70
2023/01/03 11:08:22;;;;;;;8.75;1.10;;;6.20;99.90;;;;;;4977785;28;20479;-70
2023/01/03 11:10:51;;;;;;;14.13;1.45;;;6.10;99.90;;;;;;4978226;28;20178;-70
2023/01/03 11:13:23;;;;;;;10.93;1.58;;;6.20;99.90;;;;;;4977468;28;20085;-70
2023/01/03 11:15:56;;;;;;;9.27;1.67;;;6.30;99.90;;;;;;4977922;28;20034;-70
2023/01/03 11:18:22;;;;;;;;;;;6.30;99.90;;;;;;4966214;28;20023;-70
2023/01/03 11:21:06;;;;;;;19.05;2.20;;;6.30;99.90;;;;;;4967067;28;19964;-70
2023/01/03 11:24:00;;;;;;;11.93;2.08;;;6.30;99.90;;;;;;4967147;28;20026;-71
2023/01/03 11:26:54;;;;;;;9.68;1.55;;;6.30;99.90;;;;;;4966981;28;20375;-70
2023/01/03 11:29:19;;;;;;;;;;;6.30;99.90;;;;;;4976234;28;20030;-70
2023/01/03 11:31:54;;;;;;;6.72;1.13;;;6.30;99.90;;;;;;4975652;28;19957;-71
2023/01/03 11:34:28;;;;;;;13.30;1.98;;;6.20;99.90;;;;;;4975609;28;20432;-70
2023/01/03 11:37:03;;;;;;;18.40;1.77;;;6.10;99.90;;;;;;4957078;28;20090;-70
2023/01/03 11:39:47;;;;;;;12.23;1.67;;;6.20;99.90;;;;;;4956983;28;20041;-70
2023/01/03 11:42:47;;;;;;;3.60;1.30;;;6.20;99.90;;;;;;4956844;29;20031;-70
2023/01/03 11:45:47;;;;;;;12.77;1.23;;;6.10;99.90;;;;;;4956000;28;20050;-70
2023/01/03 11:48:37;;;;;;;11.50;1.50;;;6.10;99.90;;;;;;4956754;28;20170;-70
2023/01/03 11:51:27;;;;;;;9.88;1.60;;;6.10;99.90;;;;;;4963739;28;20026;-69
2023/01/03 11:54:06;;;;;;;10.50;1.42;;;6.10;99.90;;;;;;4976401;28;20037;-70
2023/01/03 11:56:41;;;;;;;8.75;1.92;;;6.10;99.90;;;;;;4960960;28;20023;-70
2023/01/03 11:59:33;;;;;;;6.38;1.30;;;6.20;99.90;;;;;;4957507;29;20035;-70
2023/01/03 12:02:24;;;;;;;30.73;10.07;;;6.20;99.90;;;;;;4957256;29;20420;-70
2023/01/03 12:05:09;;;;;;;23.77;7.15;;;6.20;99.90;;;;;;4957657;28;20545;-70
2023/01/03 12:07:56;;;;;;;29.60;6.20;;;6.20;99.90;;;;;;4972550;28;20026;-69
2023/01/03 12:10:42;;;;;;;13.50;3.47;;;6.30;99.90;;;;;;4976805;28;20033;-70
2023/01/03 12:13:22;;;;;;;12.43;2.13;;;6.30;99.90;;;;;;4976242;28;20081;-70
2023/01/03 12:16:02;;;;;;;5.32;1.42;;;6.30;99.90;;;;;;4976663;28;20074;-70
2023/01/03 12:18:41;;;;;;;30.80;10.15;;;6.20;99.90;;;;;;4976442;28;20023;-70
2023/01/03 12:21:17;;;;;;;28.70;7.38;;;6.10;99.90;;;;;;4977104;28;20019;-69
2023/01/03 12:23:44;;;;;;;18.63;6.25;;;6.00;99.90;;;;;;4975065;28;20042;-70
2023/01/03 12:26:13;;;;;;;37.17;12.73;;;6.00;99.90;;;;;;4976353;28;20097;-70
2023/01/03 12:28:53;;;;;;;13.38;2.35;;;6.10;99.90;;;;;;4976045;28;20089;-71
2023/01/03 12:31:25;;;;;;;7.43;1.92;;;6.10;99.90;;;;;;4976394;28;20027;-70
2023/01/03 12:33:59;;;;;;;6.95;1.67;;;6.20;99.90;;;;;;4976678;28;20031;-70
2023/01/03 12:36:38;;;;;;;10.85;1.95;;;6.20;99.90;;;;;;4974966;28;20027;-70
2023/01/03 12:39:22;;;;;;;26.60;1.70;;;6.30;99.90;;;;;;4976462;28;20427;-69
2023/01/03 12:41:59;;;;;;;10.93;1.60;;;6.30;99.90;;;;;;4976071;28;20121;-70
2023/01/03 12:44:31;;;;;;;11.80;1.35;;;6.20;99.90;;;;;;4976239;28;20037;-70
2023/01/03 12:46:57;;;;;;;6.85;1.63;;;6.20;99.90;;;;;;4976302;28;20027;-70
2023/01/03 12:49:33;;;;;;;8.32;2.53;;;6.10;99.90;;;;;;4976297;28;20113;-69
2023/01/03 12:51:59;;;;;;;9.98;1.50;;;6.10;99.90;;;;;;4975846;28;20372;-69
2023/01/03 12:54:37;;;;;;;9.13;1.13;;;6.00;99.90;;;;;;4975804;28;20074;-70
2023/01/03 12:57:28;;;;;;;6.28;1.52;;;5.90;99.90;;;;;;4976179;28;20101;-69
2023/01/03 13:00:18;;;;;;;6.88;1.27;;;5.90;99.90;;;;;;4975716;28;20055;-70
2023/01/03 13:03:06;;;;;;;15.10;2.30;;;6.10;99.90;;;;;;4976042;28;20031;-70
2023/01/03 13:05:42;;;;;;;14.07;1.98;;;6.40;99.90;;;;;;4975813;28;20035;-70
2023/01/03 13:08:07;;;;;;;9.80;2.00;;;6.90;99.90;;;;;;4974542;28;20027;-70
2023/01/03 13:10:36;;;;;;;13.13;1.90;;;7.40;99.90;;;;;;4975909;28;20081;-69
2023/01/03 13:13:03;;;;;;;10.38;2.05;;;8.00;99.90;;;;;;4975778;28;20023;-70
2023/01/03 13:15:31;;;;;;;10.93;1.67;;;8.50;99.90;;;;;;4975699;28;20027;-70
2023/01/03 13:18:15;;;;;;;12.85;1.48;;;9.00;99.90;;;;;;4975365;28;20451;-70
2023/01/03 13:20:41;;;;;;;7.97;1.38;;;9.20;99.90;;;;;;4975463;28;20018;-69
2023/01/03 13:23:40;;;;;;;9.25;1.55;;;8.80;99.90;;;;;;4975409;28;20026;-70
2023/01/03 13:26:23;;;;;;;11.68;2.65;;;8.50;99.90;;;;;;4974551;28;20037;-70
2023/01/03 13:28:50;;;;;;;21.27;2.20;;;8.80;99.90;;;;;;4975623;28;20110;-70
2023/01/03 13:31:16;;;;;;;11.05;1.98;;;9.30;99.90;;;;;;4975741;28;20102;-70
2023/01/03 13:34:10;;;;;;;11.93;1.70;;;9.40;99.90;;;;;;4975134;28;20106;-70
2023/01/03 13:37:07;;;;;;;7.00;1.48;;;9.60;99.90;;;;;;4974307;28;20125;-70
2023/01/03 13:39:39;;;;;;;12.25;1.58;;;9.60;99.90;;;;;;4975100;28;20029;-69
2023/01/03 13:42:05;;;;;;;5.68;1.10;;;8.90;99.90;;;;;;4975174;28;20496;-70
2023/01/03 13:44:30;;;;;;;10.20;1.73;;;8.40;99.90;;;;;;4975175;28;20117;-70
2023/01/03 13:46:58;;;;;;;6.43;1.95;;;7.90;99.90;;;;;;4974966;28;20027;-70
2023/01/03 13:49:26;;;;;;;8.10;1.33;;;7.40;99.90;;;;;;4975184;28;20034;-69
2023/01/03 13:51:53;;;;;;;8.73;1.85;;;7.00;99.90;;;;;;4973646;28;20023;-69
2023/01/03 13:54:19;;;;;;;8.45;1.90;;;6.70;99.90;;;;;;4973465;28;20114;-70
2023/01/03 13:56:44;;;;;;;20.55;2.38;;;6.50;99.90;;;;;;4974797;28;20105;-69
2023/01/03 13:59:13;;;;;;;9.05;1.58;;;6.30;99.90;;;;;;4974831;28;20031;-69
2023/01/03 14:01:55;;;;;;;10.02;2.22;;;6.20;99.90;;;;;;4974761;28;20031;-69
2023/01/03 14:04:48;;;;;;;5.18;1.88;;;6.10;99.90;;;;;;4974760;28;20475;-70
2023/01/03 14:07:32;;;;;;;8.40;1.77;;;5.90;99.90;;;;;;4974938;28;20058;-70
2023/01/03 14:10:16;;;;;;;20.30;2.70;;;5.80;99.90;;;;;;4973253;28;20101;-71